x

Western Prince William Sound (46081) Weather Station

7:50am - Mon 29th Aug 2016 All times are UTC.

  • Average Period 3s
  • Wind
    2mph, 4mph gusts
  • Sea Temp 57°f
  • Air Temp 56°f
  • Sea Pressure 1014.6mb

More Historic Weather Station data

Upgrade to MSW Pro to gain access to the past 30 days of data for over 8000 Wavebouys and Weather Stations around the globe.

Join Pro

Comparision Forecast

View Surf forecast
   
Mon 08/29 7:50am  -   -  3s 2 4 mph 1014.6mb 57f 56f
6:50am  -   -  3s 2
mph
1014.3mb 57f 57f
5:50am  -   -  3s  -  2 mph 1013.9mb 56f 58f
4:50am  -   -  3s 4 7 mph 1013.6mb 57f 60f
3:50am  -   -  3s 7 9 mph 1013.4mb 57f 59f
2:50am 0.3ft  -  3s 4 7 mph 1013.6mb 57f 62f
1:50am 0.3ft  -  3s 2 4 mph 1013.6mb 56f 60f
12:50am 0.3ft  -  3s 7 9 mph 1013.8mb 56f 58f
Sun 08/28 11:50pm 0.3ft  -  3s 4
mph
1013.8mb 56f 58f
10:50pm 0.3ft  -  3s 4
mph
1013.7mb 55f 57f
9:50pm 0.3ft  -  3s 4
mph
1013.8mb 55f 56f
8:50pm  -   -  3s 4 9 mph 1013.9mb 55f 55f
7:50pm 0.3ft  -  3s 4 7 mph 1013.9mb 55f 54f
6:50pm 0.3ft  -  3s 7 9 mph 1014mb 55f 53f
5:50pm  -   -  3s 4
mph
1014.1mb 55f 54f
4:50pm  -   -  3s 2
mph
1014.2mb 54f 55f
3:50pm  -   -  4s 4
mph
1014.3mb 54f 51f
2:50pm  -   -  3s 2
mph
1014.1mb 54f 53f
1:50pm  -   -  4s 4
mph
1014.1mb 54f 53f
12:50pm  -   -  3s 4
mph
1014.3mb 54f 53f
11:50am  -   -  3s 4
mph
1014.2mb 54f 53f
10:50am  -   -  3s 4 7 mph 1014.1mb 54f 54f
9:50am  -   -  3s 4 7 mph 1014.1mb 53f 53f
8:50am  -   -  3s 2 4 mph 1014.1mb 52f 55f
7:50am  -   -  3s  -  2 mph 1013.9mb 54f 55f
6:50am  -   -  3s 4 7 mph 1013.9mb 52f 57f
5:50am 0.3ft  -  3s 11 13 mph 1013.8mb 52f 56f
4:50am  -   -  3s 11 13 mph 1013.6mb 53f 56f
3:50am  -   -  3s 9 11 mph 1013.8mb 55f 57f
2:50am 0.3ft  -  3s 9 11 mph 1014.2mb 56f 58f
1:50am 0.3ft  -  3s  -  4 mph 1014.8mb 56f 59f
12:50am  -   -  4s 7 9 mph 1015.1mb 56f 56f
Sat 08/27 11:50pm 0.3ft  -  4s 7 9 mph 1015.4mb 55f 56f
10:50pm 0.3ft  -  2s 2 4 mph 1016mb 53f 59f
9:50pm 0.3ft  -  2s 7 9 mph 1016.1mb 53f 56f
8:50pm  -   -  3s 7 11 mph 1016.4mb 55f 55f
7:50pm 0.3ft  -  3s 9 13 mph 1016.3mb 51f 52f
6:50pm 0.3ft  -  3s 7 9 mph 1016.5mb 52f 52f
5:50pm  -   -  3s 11 13 mph 1016.2mb 53f 52f
4:50pm  -   -  3s 7 9 mph 1016.5mb 53f 51f
3:50pm  -   -  3s 4 7 mph 1016.4mb 54f 52f
2:50pm  -   -  3s 7 9 mph 1016.3mb 55f 51f
1:50pm  -   -  3s 9
mph
1016.4mb 55f 52f
12:50pm  -   -  3s 7 9 mph 1016.9mb 55f 52f
11:50am  -   -  3s 4 7 mph 1017.1mb 55f 53f
10:50am  -   -  3s 7 9 mph 1017.1mb 55f 54f
9:50am  -   -  3s 4 7 mph 1017.1mb 55f 54f
8:50am  -   -  2s 11
mph
1016.9mb 55f 55f
7:50am  -   -  2s 9 11 mph 1016.8mb 55f 54f
6:50am  -   -  3s 9 11 mph 1016.8mb 55f 55f
5:50am  -   -  3s 9
mph
1016.8mb 54f 56f
4:50am  -   -  3s 7
mph
1016.7mb 55f 57f
3:50am  -   -  3s 7
mph
1016.9mb 55f 60f
2:50am 0.3ft  -  3s 9
mph
1017.3mb 55f 59f
1:50am 0.3ft  -  3s 9 11 mph 1017.8mb 55f 58f
12:50am 0.3ft  -  3s 9 11 mph 1018.5mb 55f 57f
Fri 08/26 11:50pm 0.3ft  -  2s 9 13 mph 1019mb 55f 59f
10:50pm 0.3ft  -  2s 13 16 mph 1019.4mb 55f 61f
9:50pm 0.3ft  -  3s 4 7 mph 1020.1mb 54f 56f
8:50pm 0.3ft  -  2s 9 11 mph 1020.9mb 54f 54f
7:50pm 0.3ft  -  3s 11 13 mph 1021.3mb 54f 53f
6:50pm 0.3ft  -  3s 7 9 mph 1021.7mb 53f 54f
5:50pm 0.3ft  -  2s 7 9 mph 1022.2mb 54f 53f
4:50pm 0.3ft  -  2s 9 11 mph 1021.9mb 54f 54f
3:50pm 0.7ft  -  3s 16 18 mph 1021.3mb 53f 52f
2:50pm 0.7ft  -  3s 11 16 mph 1021.4mb 53f 51f
1:50pm 0.3ft  -  3s 11 13 mph 1021.4mb 54f 51f
12:50pm  -   -  3s 9 11 mph 1021.7mb 54f 52f
11:50am 0.3ft  -  2s 7 11 mph 1021.8mb 53f 52f
10:50am 0.3ft  -  2s 11 13 mph 1021.9mb 53f 52f
9:50am  -   -  3s 11 13 mph 1021.9mb 53f 52f
8:50am  -   -  3s 7 9 mph 1022mb 54f 52f
7:50am  -   -  3s 7 9 mph 1022.1mb 54f 53f
6:50am  -   -  3s 2 4 mph 1022.2mb 54f 54f
5:50am  -   -  3s 2 4 mph 1022.3mb 54f 54f
4:50am  -   -  3s 2 4 mph 1022.2mb 54f 53f
3:50am  -   -  3s 7 9 mph 1022.4mb 54f 53f
2:50am  -   -  3s 7
mph
1022.5mb 54f 54f
1:50am  -   -  3s 4 7 mph 1022.7mb 54f 53f
12:50am 0.3ft  -  3s 7 9 mph 1023.1mb 54f 53f
Thu 08/25 11:50pm  -   -  3s 2 4 mph 1023.9mb 53f 54f
10:50pm  -   -  3s 2
mph
1024.2mb 54f 54f
9:50pm 0.3ft  -  3s  -  2 mph 1024.7mb 53f 55f
8:50pm 0.3ft  -  3s  -  2 mph 1024.9mb 53f 54f
7:50pm 0.3ft  -  3s 2 4 mph 1024.9mb 54f 53f
6:50pm 0.3ft  -  2s 2
mph
1024.9mb 54f 52f
5:50pm 0.3ft  -  2s 4 7 mph 1024.9mb 54f 52f
4:50pm 0.7ft  -  3s 11 13 mph 1024.7mb 54f 52f
3:50pm  -   -   -  9 11 mph 1025.1mb 54f 52f
2:50pm 1ft 2s 2s 11 13 mph 1025.3mb 55f 52f
1:50pm 0.7ft  -  2s 11
mph
1026.1mb 54f 52f
12:50pm 0.7ft  -  2s 13 16 mph 1026.5mb 55f 52f
11:50am 1ft 2s 2s 16 18 mph 1026.8mb 55f 52f
10:50am 0.7ft  -  2s 13 16 mph 1027.4mb 55f 53f
9:50am 1ft 2s 2s 13 16 mph 1028mb 55f 53f
8:50am 1ft 2s 2s 11 13 mph 1028.6mb 55f 52f